createdAt,value
2024-05-09T00:00:41.246Z,10.0
2024-05-09T00:01:40.068Z,10.3
2024-05-09T00:02:40.049Z,7.7
2024-05-09T00:03:40.140Z,9.9
2024-05-09T00:04:40.103Z,8.5
2024-05-09T00:05:40.155Z,9.8
2024-05-09T00:06:40.127Z,9.5
2024-05-09T00:07:40.021Z,14.5
2024-05-09T00:08:40.072Z,12.2
2024-05-09T00:09:40.036Z,11.1
2024-05-09T00:10:41.059Z,8.1
2024-05-09T00:11:40.144Z,7.2
2024-05-09T00:12:40.161Z,9.2
2024-05-09T00:13:40.040Z,9.9
2024-05-09T00:14:40.139Z,8.6
2024-05-09T00:15:40.040Z,8.6
2024-05-09T00:16:40.028Z,8.4
2024-05-09T00:17:41.275Z,9.5
2024-05-09T00:18:40.022Z,8.0
2024-05-09T00:19:40.043Z,8.5
2024-05-09T00:20:41.308Z,9.4
2024-05-09T00:21:40.038Z,9.0
2024-05-09T00:22:40.030Z,9.9
2024-05-09T00:23:40.151Z,9.9
2024-05-09T00:24:40.172Z,10.1
2024-05-09T00:25:40.040Z,9.8
2024-05-09T00:26:39.993Z,10.3
2024-05-09T00:27:39.975Z,9.6
2024-05-09T00:28:39.965Z,7.6
2024-05-09T00:29:40.110Z,10.9
2024-05-09T00:30:39.983Z,11.5
2024-05-09T00:31:39.964Z,8.9
2024-05-09T00:32:40.246Z,8.2
2024-05-09T00:33:40.198Z,7.6
2024-05-09T00:34:40.006Z,9.7
2024-05-09T00:35:40.172Z,8.1
2024-05-09T00:36:39.996Z,10.0
2024-05-09T00:37:39.953Z,9.9
2024-05-09T00:38:42.163Z,10.0
2024-05-09T00:39:40.007Z,10.9
2024-05-09T00:40:42.419Z,12.2
2024-05-09T00:41:40.071Z,10.0
2024-05-09T00:42:39.992Z,9.7
2024-05-09T00:43:39.967Z,8.9
2024-05-09T00:44:40.012Z,10.3
2024-05-09T00:45:40.504Z,9.0
2024-05-09T00:46:40.455Z,9.5
2024-05-09T00:47:40.085Z,8.9
2024-05-09T00:48:40.219Z,8.6
2024-05-09T00:49:40.086Z,10.3
2024-05-09T00:50:40.455Z,9.8
2024-05-09T00:51:40.023Z,9.9
2024-05-09T00:52:39.983Z,13.8
2024-05-09T00:53:40.050Z,8.9
2024-05-09T00:54:39.974Z,15.7
2024-05-09T00:55:40.177Z,11.6
2024-05-09T00:56:39.966Z,10.4
2024-05-09T00:57:39.945Z,9.3
2024-05-09T00:58:39.948Z,8.7
2024-05-09T00:59:41.158Z,11.0
2024-05-09T01:00:41.326Z,12.2
2024-05-09T01:01:40.007Z,9.8
2024-05-09T01:02:40.206Z,10.6
2024-05-09T01:03:40.121Z,9.4
2024-05-09T01:04:40.056Z,8.5
2024-05-09T01:05:40.447Z,11.0
2024-05-09T01:06:40.034Z,9.4
2024-05-09T01:07:39.942Z,10.1
2024-05-09T01:08:39.993Z,7.7
2024-05-09T01:09:39.944Z,10.2
2024-05-09T01:10:42.643Z,10.6
2024-05-09T01:11:40.065Z,7.9
2024-05-09T01:12:40.046Z,7.8
2024-05-09T01:13:39.926Z,10.6
2024-05-09T01:14:39.925Z,7.8
2024-05-09T01:15:39.909Z,10.3
2024-05-09T01:16:39.903Z,11.1
2024-05-09T01:17:40.248Z,8.7
2024-05-09T01:18:40.039Z,9.2
2024-05-09T01:19:40.006Z,16.4
2024-05-09T01:20:44.146Z,7.6
2024-05-09T01:21:39.936Z,10.6
2024-05-09T01:22:39.945Z,9.0
2024-05-09T01:23:40.045Z,9.3
2024-05-09T01:24:39.886Z,9.1
2024-05-09T01:25:40.032Z,8.7
2024-05-09T01:26:39.931Z,12.7
2024-05-09T01:27:39.950Z,11.2
2024-05-09T01:28:40.069Z,11.1
2024-05-09T01:29:39.874Z,11.3
2024-05-09T01:30:39.953Z,9.5
2024-05-09T01:31:39.998Z,12.4
2024-05-09T01:32:40.283Z,9.6
2024-05-09T01:33:40.120Z,9.0
2024-05-09T01:34:39.879Z,9.5
2024-05-09T01:35:39.974Z,8.0
2024-05-09T01:36:39.932Z,10.1
2024-05-09T01:37:39.958Z,9.1
2024-05-09T01:38:39.971Z,8.1
2024-05-09T01:39:40.077Z,8.1
2024-05-09T01:40:40.522Z,10.0
2024-05-09T01:41:41.747Z,12.8
2024-05-09T01:42:39.908Z,10.3
2024-05-09T01:43:39.847Z,9.7
2024-05-09T01:44:39.826Z,8.0
2024-05-09T01:45:40.220Z,8.3
2024-05-09T01:46:39.880Z,12.9
2024-05-09T01:47:40.035Z,10.0
2024-05-09T01:48:39.884Z,12.5
2024-05-09T01:49:39.959Z,8.7
2024-05-09T01:50:42.390Z,10.9
2024-05-09T01:51:39.873Z,8.2
2024-05-09T01:52:39.892Z,8.1
2024-05-09T01:53:39.930Z,9.6
2024-05-09T01:54:39.849Z,10.3
2024-05-09T01:55:39.892Z,10.9
2024-05-09T01:56:39.882Z,11.4
2024-05-09T01:57:39.870Z,14.2
2024-05-09T01:58:39.864Z,7.9
2024-05-09T01:59:39.960Z,8.4
2024-05-09T02:00:42.577Z,10.0
2024-05-09T02:01:55.989Z,9.1
2024-05-09T02:02:42.055Z,9.2
2024-05-09T02:03:40.011Z,12.7
2024-05-09T02:04:39.961Z,9.1
2024-05-09T02:05:40.088Z,8.2
2024-05-09T02:06:39.851Z,8.7
2024-05-09T02:07:39.845Z,11.1
2024-05-09T02:08:39.999Z,10.8
2024-05-09T02:09:39.809Z,10.5
2024-05-09T02:10:39.834Z,10.5
2024-05-09T02:11:40.031Z,8.8
2024-05-09T02:12:39.857Z,9.1
2024-05-09T02:13:39.854Z,8.7
2024-05-09T02:14:44.098Z,12.6
2024-05-09T02:15:39.844Z,9.6
2024-05-09T02:16:39.839Z,8.6
2024-05-09T02:17:40.093Z,9.9
2024-05-09T02:18:39.946Z,15.7
2024-05-09T02:19:39.835Z,10.2
2024-05-09T02:20:39.962Z,8.6
2024-05-09T02:21:39.846Z,11.4
2024-05-09T02:22:39.901Z,9.6
2024-05-09T02:23:42.334Z,10.3
2024-05-09T02:24:39.828Z,11.3
2024-05-09T02:25:39.833Z,12.2
2024-05-09T02:26:39.880Z,11.1
2024-05-09T02:27:39.836Z,10.8
2024-05-09T02:28:39.804Z,10.2
2024-05-09T02:29:39.885Z,10.3
2024-05-09T02:30:41.811Z,10.0
2024-05-09T02:31:39.795Z,10.9
2024-05-09T02:32:39.892Z,14.0
2024-05-09T02:33:39.997Z,9.5
2024-05-09T02:34:40.022Z,9.6
2024-05-09T02:35:39.910Z,11.1
2024-05-09T02:36:39.767Z,10.7
2024-05-09T02:37:39.791Z,9.4
2024-05-09T02:38:39.836Z,10.3
2024-05-09T02:39:39.889Z,9.1
2024-05-09T02:40:40.574Z,8.7
2024-05-09T02:41:39.868Z,10.5
2024-05-09T02:42:39.756Z,14.2
2024-05-09T02:43:39.843Z,9.4
2024-05-09T02:44:42.812Z,11.7
2024-05-09T02:45:40.513Z,10.8
2024-05-09T02:46:39.780Z,9.4
2024-05-09T02:47:39.967Z,8.4
2024-05-09T02:48:39.894Z,9.4
2024-05-09T02:49:39.913Z,8.7
2024-05-09T02:50:40.371Z,9.5
2024-05-09T02:51:39.763Z,9.9
2024-05-09T02:52:39.822Z,10.8
2024-05-09T02:53:39.906Z,7.3
2024-05-09T02:54:39.768Z,9.9
2024-05-09T02:55:39.839Z,8.6
2024-05-09T02:56:39.924Z,10.8
2024-05-09T02:57:39.752Z,11.2
2024-05-09T02:58:39.779Z,9.8
2024-05-09T02:59:39.728Z,11.1
2024-05-09T03:00:42.041Z,9.7
2024-05-09T03:01:39.849Z,7.8
2024-05-09T03:02:39.863Z,8.6
2024-05-09T03:03:40.015Z,10.4
2024-05-09T03:04:40.056Z,8.5
2024-05-09T03:05:43.365Z,8.6
2024-05-09T03:06:39.872Z,9.6
2024-05-09T03:07:39.807Z,10.2
2024-05-09T03:08:39.866Z,10.1
2024-05-09T03:09:39.731Z,9.1
2024-05-09T03:10:40.063Z,8.7
2024-05-09T03:11:39.984Z,10.0
2024-05-09T03:12:39.921Z,12.2
2024-05-09T03:13:39.811Z,13.4
2024-05-09T03:14:39.769Z,10.1
2024-05-09T03:15:39.735Z,9.5
2024-05-09T03:16:39.742Z,9.5
2024-05-09T03:17:39.882Z,8.5
2024-05-09T03:18:39.952Z,9.8
2024-05-09T03:19:39.723Z,9.1
2024-05-09T03:20:40.181Z,9.4
2024-05-09T03:21:39.724Z,10.4
2024-05-09T03:22:39.759Z,11.8
2024-05-09T03:23:39.902Z,11.2
2024-05-09T03:24:39.706Z,10.1
2024-05-09T03:25:40.362Z,10.0
2024-05-09T03:26:39.775Z,11.8
2024-05-09T03:27:39.734Z,8.8
2024-05-09T03:28:39.725Z,9.5
2024-05-09T03:29:39.915Z,8.9
2024-05-09T03:30:42.559Z,10.7
2024-05-09T03:31:39.759Z,10.4
2024-05-09T03:32:39.804Z,10.9
2024-05-09T03:33:39.982Z,8.2
2024-05-09T03:34:39.733Z,9.3
2024-05-09T03:35:39.777Z,9.3
2024-05-09T03:36:39.715Z,12.2
2024-05-09T03:37:39.755Z,12.8
2024-05-09T03:38:39.811Z,11.3
2024-05-09T03:39:39.737Z,11.6
2024-05-09T03:40:39.950Z,9.2
2024-05-09T03:41:39.746Z,11.9
2024-05-09T03:42:39.797Z,9.6
2024-05-09T03:43:39.743Z,10.5
2024-05-09T03:44:39.863Z,10.2
2024-05-09T03:45:39.726Z,8.7
2024-05-09T03:46:40.727Z,10.1
2024-05-09T03:47:39.928Z,10.8
2024-05-09T03:48:39.744Z,11.8
2024-05-09T03:49:39.702Z,11.0
2024-05-09T03:50:39.836Z,12.7
2024-05-09T03:51:40.623Z,13.6
2024-05-09T03:52:39.730Z,9.6
2024-05-09T03:53:39.837Z,9.9
2024-05-09T03:54:39.688Z,13.1
2024-05-09T03:55:39.759Z,11.3
2024-05-09T03:56:39.763Z,9.2
2024-05-09T03:57:39.696Z,11.4
2024-05-09T03:58:39.719Z,11.7
2024-05-09T03:59:39.682Z,13.8
2024-05-09T04:00:40.397Z,10.0
2024-05-09T04:01:39.729Z,10.6
2024-05-09T04:02:41.256Z,11.3
2024-05-09T04:03:39.791Z,8.7
2024-05-09T04:04:39.733Z,8.2
2024-05-09T04:05:40.416Z,13.3
2024-05-09T04:06:39.662Z,10.2
2024-05-09T04:07:40.910Z,9.4
2024-05-09T04:08:39.811Z,12.0
2024-05-09T04:09:39.696Z,8.5
2024-05-09T04:10:39.684Z,12.2
2024-05-09T04:11:39.695Z,10.7
2024-05-09T04:12:39.636Z,10.6
2024-05-09T04:13:42.191Z,9.7
2024-05-09T04:14:39.753Z,9.5
2024-05-09T04:15:39.669Z,10.3
2024-05-09T04:16:39.656Z,13.0
2024-05-09T04:17:39.870Z,8.9
2024-05-09T04:18:39.806Z,11.7
2024-05-09T04:19:39.831Z,12.5
2024-05-09T04:20:41.404Z,10.2
2024-05-09T04:21:39.635Z,10.8
2024-05-09T04:22:39.698Z,12.6
2024-05-09T04:23:39.779Z,12.2
2024-05-09T04:24:42.687Z,9.5
2024-05-09T04:25:39.690Z,10.9
2024-05-09T04:26:39.718Z,10.0
2024-05-09T04:27:39.623Z,10.6
2024-05-09T04:28:40.895Z,11.5
2024-05-09T04:29:39.700Z,7.9
2024-05-09T04:30:41.445Z,9.5
2024-05-09T04:31:39.662Z,10.4
2024-05-09T04:32:39.731Z,10.0
2024-05-09T04:33:39.747Z,11.4
2024-05-09T04:34:39.734Z,10.8
2024-05-09T04:35:39.955Z,11.4
2024-05-09T04:36:41.592Z,12.1
2024-05-09T04:37:39.605Z,9.4
2024-05-09T04:38:39.724Z,8.9
2024-05-09T04:39:39.627Z,9.6
2024-05-09T04:40:39.624Z,10.0
2024-05-09T04:41:39.674Z,9.4
2024-05-09T04:42:39.651Z,9.6
2024-05-09T04:43:39.622Z,12.3
2024-05-09T04:44:39.649Z,14.0
2024-05-09T04:45:39.619Z,12.3
2024-05-09T04:46:39.726Z,9.1
2024-05-09T04:47:39.713Z,8.9
2024-05-09T04:48:39.719Z,7.9
2024-05-09T04:49:41.543Z,20.8
2024-05-09T04:50:40.080Z,12.3
2024-05-09T04:51:39.655Z,11.3
2024-05-09T04:52:39.605Z,10.9
2024-05-09T04:53:39.830Z,9.3
2024-05-09T04:54:39.580Z,12.7
2024-05-09T04:55:40.226Z,14.6
2024-05-09T04:56:39.677Z,10.8
2024-05-09T04:57:39.726Z,13.4
2024-05-09T04:58:39.637Z,11.9
2024-05-09T04:59:39.617Z,9.0
2024-05-09T05:00:40.672Z,9.4
2024-05-09T05:01:39.643Z,12.6
2024-05-09T05:02:39.706Z,12.1
2024-05-09T05:03:39.711Z,11.9
2024-05-09T05:04:39.636Z,10.6
2024-05-09T05:05:39.758Z,11.7
2024-05-09T05:06:39.610Z,9.4
2024-05-09T05:07:39.592Z,10.3
2024-05-09T05:08:39.736Z,9.0
2024-05-09T05:09:39.790Z,10.9
2024-05-09T05:10:41.735Z,11.4
2024-05-09T05:11:39.877Z,14.1
2024-05-09T05:12:40.050Z,13.2
2024-05-09T05:13:41.510Z,9.7
2024-05-09T05:14:39.713Z,13.7
2024-05-09T05:15:39.636Z,10.4
2024-05-09T05:16:39.653Z,10.8
2024-05-09T05:17:39.845Z,9.0
2024-05-09T05:18:39.703Z,10.0
2024-05-09T05:19:39.822Z,9.5
2024-05-09T05:20:39.658Z,12.7
2024-05-09T05:21:39.606Z,9.3
2024-05-09T05:22:39.572Z,8.6
2024-05-09T05:23:39.750Z,9.9
2024-05-09T05:24:39.560Z,12.8
2024-05-09T05:25:40.201Z,9.3
2024-05-09T05:26:39.653Z,10.7
2024-05-09T05:27:39.613Z,11.6
2024-05-09T05:28:39.954Z,9.0
2024-05-09T05:29:39.645Z,11.3
2024-05-09T05:30:41.208Z,9.3
2024-05-09T05:31:39.680Z,8.8
2024-05-09T05:32:39.923Z,8.9
2024-05-09T05:33:39.641Z,11.6
2024-05-09T05:34:39.514Z,10.9
2024-05-09T05:35:39.562Z,10.6
2024-05-09T05:36:39.746Z,11.5
2024-05-09T05:37:39.519Z,9.6
2024-05-09T05:38:39.625Z,11.2
2024-05-09T05:39:39.545Z,9.8
2024-05-09T05:40:40.723Z,11.1
2024-05-09T05:41:39.882Z,9.7
2024-05-09T05:42:39.532Z,9.3
2024-05-09T05:43:39.530Z,10.5
2024-05-09T05:44:39.569Z,10.1
2024-05-09T05:45:39.593Z,8.0
2024-05-09T05:46:42.300Z,10.1
2024-05-09T05:47:39.719Z,9.2
2024-05-09T05:48:39.791Z,9.7
2024-05-09T05:49:39.597Z,15.7
2024-05-09T05:50:39.631Z,9.8
2024-05-09T05:51:40.946Z,14.1
2024-05-09T05:52:39.665Z,9.6
2024-05-09T05:53:39.802Z,12.2
2024-05-09T05:54:39.556Z,14.4
2024-05-09T05:55:39.875Z,10.4
2024-05-09T05:56:39.761Z,7.7
2024-05-09T05:57:39.536Z,8.9
2024-05-09T05:58:39.578Z,9.5
2024-05-09T05:59:39.579Z,9.2
2024-05-09T06:00:40.820Z,8.4
2024-05-09T06:01:39.482Z,9.6
2024-05-09T06:02:39.600Z,11.2
2024-05-09T06:03:39.776Z,7.4
2024-05-09T06:04:39.570Z,9.6
2024-05-09T06:05:40.470Z,9.6
2024-05-09T06:06:39.954Z,9.0
2024-05-09T06:07:39.541Z,6.9
2024-05-09T06:08:39.640Z,8.6
2024-05-09T06:09:39.539Z,6.6
2024-05-09T06:10:41.092Z,6.9
2024-05-09T06:11:39.609Z,9.3
2024-05-09T06:12:41.215Z,8.4
2024-05-09T06:13:39.523Z,9.0
2024-05-09T06:14:39.576Z,9.5
2024-05-09T06:15:39.623Z,8.4
2024-05-09T06:16:39.647Z,9.0
2024-05-09T06:17:39.878Z,7.2
2024-05-09T06:18:39.935Z,8.3
2024-05-09T06:19:39.620Z,10.2
2024-05-09T06:20:40.241Z,7.4
2024-05-09T06:21:39.781Z,9.3
2024-05-09T06:22:39.449Z,7.6
2024-05-09T06:23:39.525Z,9.9
2024-05-09T06:24:39.484Z,9.7
2024-05-09T06:25:39.554Z,11.2
2024-05-09T06:26:39.503Z,7.5
2024-05-09T06:27:39.453Z,6.9
2024-05-09T06:28:39.530Z,11.7
2024-05-09T06:29:39.664Z,9.5
2024-05-09T06:30:41.726Z,8.2
2024-05-09T06:31:39.485Z,7.8
2024-05-09T06:32:39.556Z,8.6
2024-05-09T06:33:42.075Z,6.7
2024-05-09T06:34:39.558Z,7.9
2024-05-09T06:35:39.824Z,7.2
2024-05-09T06:36:39.595Z,8.2
2024-05-09T06:37:39.605Z,10.6
2024-05-09T06:38:39.658Z,8.0
2024-05-09T06:39:39.535Z,8.9
2024-05-09T06:40:41.113Z,6.4
2024-05-09T06:41:39.532Z,8.4
2024-05-09T06:42:39.416Z,10.9
2024-05-09T06:43:39.455Z,7.9
2024-05-09T06:44:39.487Z,7.9
2024-05-09T06:45:39.671Z,6.1
2024-05-09T06:46:39.556Z,6.7
2024-05-09T06:47:39.647Z,10.2
2024-05-09T06:48:40.033Z,10.5
2024-05-09T06:49:39.533Z,6.2
2024-05-09T06:50:40.214Z,7.6
2024-05-09T06:51:39.484Z,7.1
2024-05-09T06:52:39.486Z,8.3
2024-05-09T06:53:39.602Z,8.6
2024-05-09T06:54:41.682Z,5.7
2024-05-09T06:55:39.473Z,7.4
2024-05-09T06:56:39.445Z,7.0
2024-05-09T06:57:42.483Z,6.1
2024-05-09T06:58:39.421Z,8.5
2024-05-09T06:59:39.581Z,5.9
2024-05-09T07:00:41.395Z,6.8
2024-05-09T07:01:39.598Z,6.6
2024-05-09T07:02:39.969Z,5.6
2024-05-09T07:03:39.536Z,6.4
2024-05-09T07:04:39.527Z,6.7
2024-05-09T07:05:39.688Z,6.1
2024-05-09T07:06:39.443Z,5.7
2024-05-09T07:07:39.746Z,9.9
2024-05-09T07:08:39.598Z,7.8
2024-05-09T07:09:39.428Z,5.5
2024-05-09T07:10:39.652Z,8.3
2024-05-09T07:11:39.626Z,6.0
2024-05-09T07:12:39.439Z,12.1
2024-05-09T07:13:39.690Z,6.8
2024-05-09T07:14:45.238Z,9.5
2024-05-09T07:15:42.188Z,6.1
2024-05-09T07:16:39.659Z,6.4
2024-05-09T07:17:39.614Z,6.4
2024-05-09T07:18:40.049Z,8.2
2024-05-09T07:19:39.546Z,10.7
2024-05-09T07:20:39.487Z,8.8
2024-05-09T07:21:39.596Z,7.2
2024-05-09T07:22:39.426Z,5.4
2024-05-09T07:23:39.503Z,6.1
2024-05-09T07:24:39.609Z,6.4
2024-05-09T07:25:39.520Z,4.9
2024-05-09T07:26:39.648Z,9.5
2024-05-09T07:27:39.386Z,6.9
2024-05-09T07:28:39.378Z,5.4
2024-05-09T07:29:39.638Z,6.9
2024-05-09T07:30:39.499Z,6.2
2024-05-09T07:31:39.462Z,7.3
2024-05-09T07:32:39.708Z,5.5
2024-05-09T07:33:39.527Z,5.8
2024-05-09T07:34:39.443Z,4.0
2024-05-09T07:35:39.634Z,8.4
2024-05-09T07:36:41.993Z,8.8
2024-05-09T07:37:39.428Z,5.8
2024-05-09T07:38:39.470Z,4.9
2024-05-09T07:39:39.472Z,7.0
2024-05-09T07:40:39.418Z,6.1
2024-05-09T07:41:39.461Z,5.6
2024-05-09T07:42:39.395Z,5.6
2024-05-09T07:43:39.790Z,5.3
2024-05-09T07:44:39.645Z,5.3
2024-05-09T07:45:48.944Z,3.5
2024-05-09T07:47:47.633Z,3.9
2024-05-09T07:48:58.146Z,5.3
2024-05-09T07:53:14.346Z,5.5
2024-05-09T07:53:44.435Z,6.5
2024-05-09T07:54:39.519Z,5.4
2024-05-09T07:55:39.595Z,5.0
2024-05-09T07:56:39.812Z,4.1
2024-05-09T07:57:42.743Z,7.6
2024-05-09T07:58:39.463Z,5.4
2024-05-09T07:59:39.396Z,4.8
2024-05-09T08:00:39.456Z,4.3
2024-05-09T08:01:39.522Z,6.3
2024-05-09T08:02:39.372Z,6.1
2024-05-09T08:03:39.618Z,6.4
2024-05-09T08:04:39.535Z,6.5
2024-05-09T08:05:39.525Z,7.2
2024-05-09T08:06:39.394Z,5.9
2024-05-09T08:07:39.387Z,6.7
2024-05-09T08:08:39.561Z,6.3
2024-05-09T08:09:39.423Z,4.6
2024-05-09T08:10:39.406Z,9.2
2024-05-09T08:11:39.401Z,6.4
2024-05-09T08:12:39.380Z,6.7
2024-05-09T08:13:39.369Z,5.8
2024-05-09T08:14:39.398Z,9.0
2024-05-09T08:15:39.432Z,6.3
2024-05-09T08:16:39.556Z,5.7
2024-05-09T08:17:39.937Z,5.4
2024-05-09T08:18:39.634Z,6.0
2024-05-09T08:19:39.381Z,5.2
2024-05-09T08:20:39.399Z,4.0
2024-05-09T08:21:39.345Z,7.5
2024-05-09T08:22:39.329Z,7.5
2024-05-09T08:23:39.371Z,6.4
2024-05-09T08:24:39.420Z,7.2
2024-05-09T08:25:39.320Z,6.9
2024-05-09T08:26:39.372Z,6.6
2024-05-09T08:27:39.421Z,9.6
2024-05-09T08:28:39.347Z,13.7
2024-05-09T08:29:39.397Z,5.8
2024-05-09T08:30:39.451Z,7.1
2024-05-09T08:31:39.422Z,5.9
2024-05-09T08:32:39.373Z,6.8
2024-05-09T08:33:39.490Z,4.5
2024-05-09T08:34:39.333Z,6.6
2024-05-09T08:35:39.344Z,6.7
2024-05-09T08:36:39.379Z,7.7
2024-05-09T08:37:40.682Z,7.2
2024-05-09T08:38:40.127Z,6.1
2024-05-09T08:39:39.346Z,4.8
2024-05-09T08:40:39.422Z,8.3
2024-05-09T08:41:39.314Z,7.1
2024-05-09T08:42:39.379Z,7.4
2024-05-09T08:43:41.559Z,6.5
2024-05-09T08:44:39.378Z,6.4
2024-05-09T08:45:39.340Z,11.6
2024-05-09T08:46:39.302Z,5.7
2024-05-09T08:47:39.449Z,6.9
2024-05-09T08:48:39.418Z,8.3
2024-05-09T08:49:41.417Z,7.4
2024-05-09T08:50:40.256Z,7.3
2024-05-09T08:51:39.390Z,5.8
2024-05-09T08:52:39.348Z,15.1
2024-05-09T08:53:39.313Z,6.7
2024-05-09T08:54:39.322Z,6.3
2024-05-09T08:55:42.119Z,6.1
2024-05-09T08:56:39.291Z,7.2
2024-05-09T08:57:39.403Z,5.7
2024-05-09T08:58:39.338Z,4.9
2024-05-09T08:59:40.075Z,8.4
2024-05-09T09:00:39.547Z,5.6
2024-05-09T09:01:40.916Z,5.7
2024-05-09T09:02:39.571Z,5.3
2024-05-09T09:03:39.842Z,7.7
2024-05-09T09:04:39.528Z,8.9
2024-05-09T09:05:39.933Z,15.2
2024-05-09T09:06:39.411Z,5.9
2024-05-09T09:07:39.328Z,6.7
2024-05-09T09:08:39.298Z,9.5
2024-05-09T09:09:39.283Z,5.7
2024-05-09T09:10:39.477Z,8.4
2024-05-09T09:11:39.597Z,7.6
2024-05-09T09:12:39.400Z,5.5
2024-05-09T09:13:39.323Z,7.3
2024-05-09T09:14:39.362Z,5.8
2024-05-09T09:15:39.388Z,5.3
2024-05-09T09:16:39.288Z,7.6
2024-05-09T09:17:39.340Z,11.3
2024-05-09T09:18:39.702Z,7.4
2024-05-09T09:19:39.408Z,5.6
2024-05-09T09:20:40.309Z,6.0
2024-05-09T09:21:39.362Z,4.4
2024-05-09T09:22:40.253Z,9.4
2024-05-09T09:23:39.296Z,6.7
2024-05-09T09:24:39.368Z,5.5
2024-05-09T09:25:39.255Z,8.5
2024-05-09T09:26:39.296Z,7.8
2024-05-09T09:27:39.347Z,8.2
2024-05-09T09:28:39.307Z,4.9
2024-05-09T09:29:39.264Z,5.7
2024-05-09T09:30:39.518Z,6.9
2024-05-09T09:31:39.335Z,7.0
2024-05-09T09:32:39.519Z,4.9
2024-05-09T09:33:39.579Z,5.9
2024-05-09T09:34:39.299Z,6.7
2024-05-09T09:35:39.475Z,7.0
2024-05-09T09:36:39.343Z,7.0
2024-05-09T09:37:39.287Z,4.7
2024-05-09T09:38:39.287Z,5.2
2024-05-09T09:39:39.284Z,6.2
2024-05-09T09:40:44.518Z,4.9
2024-05-09T09:41:40.467Z,5.9
2024-05-09T09:42:39.305Z,4.8
2024-05-09T09:43:39.269Z,6.8
2024-05-09T09:44:42.140Z,6.7
2024-05-09T09:45:39.338Z,4.2
2024-05-09T09:46:39.323Z,6.0
2024-05-09T09:47:39.408Z,5.3
2024-05-09T09:48:39.517Z,5.9
2024-05-09T09:49:39.274Z,6.0
2024-05-09T09:50:39.244Z,5.3
2024-05-09T09:51:39.287Z,5.5
2024-05-09T09:52:39.286Z,6.1
2024-05-09T09:53:39.275Z,6.1
2024-05-09T09:54:39.271Z,5.5
2024-05-09T09:55:39.387Z,4.2
2024-05-09T09:56:39.255Z,6.1
2024-05-09T09:57:39.275Z,6.2
2024-05-09T09:58:39.272Z,5.9
2024-05-09T09:59:39.244Z,5.1
2024-05-09T10:00:39.496Z,4.4
2024-05-09T10:01:39.536Z,5.3
2024-05-09T10:02:40.749Z,5.8
2024-05-09T10:03:39.579Z,5.3
2024-05-09T10:04:39.568Z,5.5
2024-05-09T10:05:42.033Z,5.0
2024-05-09T10:06:39.753Z,5.9
2024-05-09T10:07:39.367Z,5.4
2024-05-09T10:08:39.491Z,5.1
2024-05-09T10:09:39.493Z,4.7
2024-05-09T10:10:39.634Z,6.0
2024-05-09T10:11:42.036Z,4.1
2024-05-09T10:12:39.299Z,6.6
2024-05-09T10:13:39.210Z,5.9
2024-05-09T10:14:39.257Z,8.6
2024-05-09T10:15:39.266Z,5.7
2024-05-09T10:16:39.214Z,6.3
2024-05-09T10:17:39.300Z,7.4
2024-05-09T10:18:39.468Z,8.4
2024-05-09T10:19:39.263Z,4.5
2024-05-09T10:20:39.238Z,7.4
2024-05-09T10:21:39.301Z,4.5
2024-05-09T10:22:39.237Z,5.2
2024-05-09T10:23:40.882Z,5.7
2024-05-09T10:24:39.329Z,6.8
2024-05-09T10:25:39.198Z,4.2
2024-05-09T10:26:39.287Z,5.2
2024-05-09T10:27:39.274Z,8.4
2024-05-09T10:28:39.342Z,6.6
2024-05-09T10:29:39.205Z,5.5
2024-05-09T10:30:39.907Z,6.5
2024-05-09T10:31:39.459Z,5.7
2024-05-09T10:32:39.349Z,10.1
2024-05-09T10:33:39.501Z,5.9
2024-05-09T10:34:39.251Z,5.0
2024-05-09T10:35:39.303Z,4.1
2024-05-09T10:36:39.227Z,5.7
2024-05-09T10:37:39.258Z,5.8
2024-05-09T10:38:39.168Z,4.3
2024-05-09T10:39:42.262Z,6.4
2024-05-09T10:40:39.268Z,6.2
2024-05-09T10:41:39.337Z,5.1
2024-05-09T10:42:39.306Z,5.1
2024-05-09T10:43:39.205Z,5.3
2024-05-09T10:44:41.115Z,3.8
2024-05-09T10:45:39.262Z,5.4
2024-05-09T10:46:39.266Z,4.6
2024-05-09T10:47:39.251Z,6.1
2024-05-09T10:48:39.424Z,5.5
2024-05-09T10:49:39.244Z,9.7
2024-05-09T10:50:39.363Z,6.5
2024-05-09T10:51:39.394Z,5.5
2024-05-09T10:52:39.183Z,5.1
2024-05-09T10:53:39.229Z,7.1
2024-05-09T10:54:39.295Z,5.1
2024-05-09T10:55:39.234Z,5.6
2024-05-09T10:56:39.198Z,6.6
2024-05-09T10:57:39.268Z,4.6
2024-05-09T10:58:39.215Z,4.6
2024-05-09T10:59:39.205Z,5.2
2024-05-09T11:00:39.250Z,4.8
2024-05-09T11:01:39.203Z,6.1
2024-05-09T11:02:39.339Z,10.1
2024-05-09T11:03:39.757Z,6.3
2024-05-09T11:04:39.338Z,4.4
2024-05-09T11:05:41.540Z,6.9
2024-05-09T11:06:39.278Z,5.3
2024-05-09T11:07:39.184Z,6.1
2024-05-09T11:08:39.259Z,7.4
2024-05-09T11:09:39.359Z,5.2
2024-05-09T11:10:39.259Z,4.7
2024-05-09T11:11:39.227Z,6.2
2024-05-09T11:12:39.435Z,6.1
2024-05-09T11:13:39.228Z,5.5
2024-05-09T11:14:39.174Z,5.8
2024-05-09T11:15:39.170Z,4.5
2024-05-09T11:16:39.138Z,7.3
2024-05-09T11:17:39.347Z,5.2
2024-05-09T11:18:39.597Z,6.2
2024-05-09T11:19:39.279Z,5.9
2024-05-09T11:20:39.201Z,5.4
2024-05-09T11:21:39.209Z,4.4
2024-05-09T11:22:39.139Z,6.9
2024-05-09T11:23:39.419Z,4.9
2024-05-09T11:24:39.243Z,6.0
2024-05-09T11:25:39.648Z,7.9
2024-05-09T11:26:41.677Z,4.7
2024-05-09T11:27:39.155Z,4.6
2024-05-09T11:28:39.239Z,4.3
2024-05-09T11:29:39.293Z,5.4
2024-05-09T11:30:39.214Z,5.7
2024-05-09T11:31:39.251Z,4.7
2024-05-09T11:32:39.270Z,9.0
2024-05-09T11:33:39.562Z,3.7
2024-05-09T11:34:39.468Z,5.8
2024-05-09T11:35:39.155Z,5.4
2024-05-09T11:36:39.276Z,5.2
2024-05-09T11:37:39.165Z,4.4
2024-05-09T11:38:39.159Z,5.6
2024-05-09T11:39:39.123Z,5.5
2024-05-09T11:40:39.235Z,5.3
2024-05-09T11:41:39.158Z,5.1
2024-05-09T11:42:39.218Z,4.9
2024-05-09T11:43:39.126Z,4.9
2024-05-09T11:44:39.139Z,5.0
2024-05-09T11:45:39.545Z,5.0
2024-05-09T11:46:39.796Z,4.7
2024-05-09T11:47:42.663Z,7.0
2024-05-09T11:48:39.388Z,6.7
2024-05-09T11:49:39.277Z,6.0
2024-05-09T11:50:39.178Z,6.8
2024-05-09T11:51:39.268Z,4.9
2024-05-09T11:52:39.149Z,4.1
2024-05-09T11:53:39.419Z,8.8
2024-05-09T11:54:39.181Z,4.6
2024-05-09T11:55:39.187Z,7.0
2024-05-09T11:56:39.157Z,5.6
2024-05-09T11:57:39.303Z,5.3
2024-05-09T11:58:39.143Z,4.2
2024-05-09T11:59:39.175Z,5.8
2024-05-09T12:00:39.298Z,6.3
2024-05-09T12:01:39.250Z,6.2
2024-05-09T12:02:39.127Z,5.3
2024-05-09T12:03:39.410Z,5.6
2024-05-09T12:04:39.589Z,5.8
2024-05-09T12:05:39.548Z,5.5
2024-05-09T12:06:39.249Z,4.0
2024-05-09T12:07:39.682Z,7.6
2024-05-09T12:08:39.148Z,5.3
2024-05-09T12:09:39.251Z,8.4
2024-05-09T12:10:39.449Z,7.4
2024-05-09T12:11:39.554Z,4.0
2024-05-09T12:12:39.469Z,4.5
2024-05-09T12:13:39.274Z,5.9
2024-05-09T12:14:39.194Z,7.6
2024-05-09T12:15:39.424Z,7.0
2024-05-09T12:16:39.542Z,5.4
2024-05-09T12:17:39.399Z,4.9
2024-05-09T12:18:39.605Z,5.8
2024-05-09T12:19:39.529Z,4.6
2024-05-09T12:20:40.255Z,4.2
2024-05-09T12:21:39.295Z,10.0
2024-05-09T12:22:39.441Z,7.0
2024-05-09T12:23:39.312Z,4.8
2024-05-09T12:24:39.291Z,9.6
2024-05-09T12:25:39.920Z,4.6
2024-05-09T12:26:39.155Z,3.4
2024-05-09T12:27:39.446Z,3.6
2024-05-09T12:28:39.819Z,5.8
2024-05-09T12:29:42.339Z,5.5
2024-05-09T12:30:40.903Z,13.7
2024-05-09T12:31:39.147Z,4.9
2024-05-09T12:32:39.367Z,5.7
2024-05-09T12:33:39.256Z,5.4
2024-05-09T12:34:39.364Z,6.3
2024-05-09T12:35:39.174Z,5.8
2024-05-09T12:36:39.134Z,3.6
2024-05-09T12:37:39.158Z,4.5
2024-05-09T12:38:39.080Z,3.5
2024-05-09T12:39:39.161Z,7.9
2024-05-09T12:40:39.616Z,4.0
2024-05-09T12:41:39.078Z,2.6
2024-05-09T12:42:39.239Z,4.0
2024-05-09T12:43:39.187Z,5.4
2024-05-09T12:44:39.089Z,5.2
2024-05-09T12:45:39.593Z,6.0
2024-05-09T12:46:39.157Z,3.7
2024-05-09T12:47:39.188Z,6.6
2024-05-09T12:48:39.430Z,6.8
2024-05-09T12:49:40.062Z,8.9
2024-05-09T12:50:39.271Z,5.7
2024-05-09T12:51:39.344Z,4.9
2024-05-09T12:52:39.158Z,5.4
2024-05-09T12:53:39.262Z,6.6
2024-05-09T12:54:39.124Z,3.8
2024-05-09T12:55:45.087Z,3.8
2024-05-09T12:56:39.119Z,3.8
2024-05-09T12:57:39.129Z,4.4
2024-05-09T12:58:39.128Z,4.9
2024-05-09T12:59:39.139Z,10.3
2024-05-09T13:00:39.361Z,4.9
2024-05-09T13:01:39.217Z,3.5
2024-05-09T13:02:39.377Z,5.8
2024-05-09T13:03:39.228Z,5.4
2024-05-09T13:04:39.263Z,4.8
2024-05-09T13:05:39.157Z,5.7
2024-05-09T13:06:39.210Z,9.6
2024-05-09T13:07:39.120Z,3.5
2024-05-09T13:08:39.073Z,5.2
2024-05-09T13:09:39.103Z,5.2
2024-05-09T13:10:40.685Z,7.8
2024-05-09T13:11:39.207Z,4.0
2024-05-09T13:12:39.148Z,4.9
2024-05-09T13:13:39.322Z,4.1
2024-05-09T13:14:39.197Z,4.5
2024-05-09T13:15:39.301Z,6.2
2024-05-09T13:16:39.176Z,4.8
2024-05-09T13:17:39.145Z,4.7
2024-05-09T13:18:39.181Z,6.0
2024-05-09T13:19:39.085Z,4.7
2024-05-09T13:20:39.132Z,9.7
2024-05-09T13:21:39.069Z,9.1
2024-05-09T13:22:39.074Z,7.5
2024-05-09T13:23:39.077Z,11.5
2024-05-09T13:24:39.332Z,5.0
2024-05-09T13:25:39.124Z,5.0
2024-05-09T13:26:39.090Z,5.8
2024-05-09T13:27:39.145Z,5.5
2024-05-09T13:28:39.215Z,6.5
2024-05-09T13:29:41.070Z,7.6
2024-05-09T13:30:41.764Z,5.7
2024-05-09T13:31:40.546Z,6.6
2024-05-09T13:32:39.190Z,8.0
2024-05-09T13:33:39.188Z,6.2
2024-05-09T13:34:39.106Z,8.7
2024-05-09T13:35:40.692Z,4.2
2024-05-09T13:36:39.266Z,4.6
2024-05-09T13:37:39.079Z,4.5
2024-05-09T13:38:39.060Z,4.3
2024-05-09T13:39:39.105Z,4.5
2024-05-09T13:40:39.299Z,7.3
2024-05-09T13:41:39.080Z,7.6
2024-05-09T13:42:39.093Z,5.8